createdAt,value
2022-11-05T04:52:47.398Z,97.20
2022-11-05T04:53:48.588Z,97.31
2022-11-05T04:54:48.595Z,97.45
2022-11-05T04:55:48.552Z,97.41
2022-11-05T04:56:48.621Z,97.31
2022-11-05T04:57:48.589Z,97.36
2022-11-05T04:58:49.401Z,97.45
2022-11-05T04:59:48.585Z,97.66
2022-11-05T05:00:48.472Z,97.45
2022-11-05T05:01:48.556Z,97.45
2022-11-05T05:02:48.449Z,97.56
2022-11-05T05:03:48.496Z,97.50
2022-11-05T05:04:48.546Z,97.56
2022-11-05T05:05:48.457Z,97.71
2022-11-05T05:06:48.432Z,98.02
2022-11-05T05:07:48.457Z,98.22
2022-11-05T05:08:48.455Z,97.96
2022-11-05T05:09:48.419Z,97.50
2022-11-05T05:10:48.451Z,97.81
2022-11-05T05:11:48.486Z,97.96
2022-11-05T05:12:48.451Z,97.91
2022-11-05T05:13:48.489Z,98.02
2022-11-05T05:14:48.467Z,97.91
2022-11-05T05:15:48.463Z,97.86
2022-11-05T05:16:48.447Z,97.61
2022-11-05T05:17:48.402Z,98.06
2022-11-05T05:18:48.423Z,97.86
2022-11-05T05:19:48.513Z,98.16
2022-11-05T05:20:48.397Z,97.34
2022-11-05T05:21:48.455Z,97.71
2022-11-05T05:22:48.424Z,97.44
2022-11-05T05:23:48.285Z,97.55
2022-11-05T05:24:52.559Z,97.55
2022-11-05T05:25:49.312Z,97.44
2022-11-05T05:26:48.367Z,97.75
2022-11-05T05:27:48.286Z,97.55
2022-11-05T05:28:48.340Z,97.86
2022-11-05T05:29:48.405Z,98.00
2022-11-05T05:30:48.325Z,98.21
2022-11-05T05:31:48.321Z,97.49
2022-11-05T05:32:48.301Z,98.32
2022-11-05T05:33:48.292Z,98.21
2022-11-05T05:34:48.306Z,98.42
2022-11-05T05:35:48.376Z,98.00
2022-11-05T05:36:49.313Z,98.21
2022-11-05T05:37:48.285Z,98.32
2022-11-05T05:38:48.284Z,98.46
2022-11-05T05:39:48.288Z,98.36
2022-11-05T05:40:48.271Z,98.77
2022-11-05T05:41:48.184Z,98.57
2022-11-05T05:42:48.137Z,99.18
2022-11-05T05:43:48.170Z,98.97
2022-11-05T05:44:48.152Z,98.88
2022-11-05T05:45:48.292Z,99.08
2022-11-05T05:46:48.342Z,98.97
2022-11-05T05:47:48.235Z,99.29
2022-11-05T05:48:48.246Z,98.88
2022-11-05T05:49:48.274Z,99.08
2022-11-05T05:50:48.279Z,98.88
2022-11-05T05:51:48.239Z,98.46
2022-11-05T05:52:48.196Z,98.10
2022-11-05T05:53:48.212Z,97.64
2022-11-05T05:54:48.176Z,97.64
2022-11-05T05:55:48.191Z,97.13
2022-11-05T05:56:48.179Z,97.27
2022-11-05T05:57:48.261Z,97.38
2022-11-05T05:58:48.198Z,97.58
2022-11-05T05:59:48.137Z,97.83
2022-11-05T06:00:48.044Z,98.35
2022-11-05T06:01:48.218Z,98.20
2022-11-05T06:02:48.310Z,98.35
2022-11-05T06:03:48.048Z,98.14
2022-11-05T06:04:48.059Z,98.14
2022-11-05T06:05:48.018Z,98.35
2022-11-05T06:06:47.987Z,98.24
2022-11-05T06:07:48.176Z,98.03
2022-11-05T06:08:48.123Z,98.03
2022-11-05T06:09:48.114Z,98.24
2022-11-05T06:10:48.088Z,97.98
2022-11-05T06:11:48.040Z,98.29
2022-11-05T06:12:48.035Z,98.29
2022-11-05T06:13:48.195Z,99.06
2022-11-05T06:14:48.063Z,99.37
2022-11-05T06:15:48.042Z,99.57
2022-11-05T06:16:48.015Z,99.26
2022-11-05T06:17:48.020Z,99.37
2022-11-05T06:18:48.019Z,99.37
2022-11-05T06:19:48.039Z,98.96
2022-11-05T06:20:47.986Z,99.26
2022-11-05T06:21:47.969Z,98.85
2022-11-05T06:22:48.006Z,99.26
2022-11-05T06:23:47.898Z,99.21
2022-11-05T06:24:47.912Z,99.16
2022-11-05T06:25:47.934Z,99.16
2022-11-05T06:26:47.893Z,99.47
2022-11-05T06:27:47.886Z,99.37
2022-11-05T06:28:47.921Z,99.26
2022-11-05T06:29:47.853Z,99.57
2022-11-05T06:30:48.043Z,99.88
2022-11-05T06:31:47.929Z,99.99
2022-11-05T06:32:47.989Z,99.88
2022-11-05T06:33:47.910Z,99.16
2022-11-05T06:34:47.889Z,99.57
2022-11-05T06:35:47.944Z,99.37
2022-11-05T06:36:47.893Z,99.47
2022-11-05T06:37:47.890Z,99.78
2022-11-05T06:38:47.900Z,99.26
2022-11-05T06:39:47.839Z,99.16
2022-11-05T06:40:47.862Z,98.79
2022-11-05T06:42:16.696Z,99.00
2022-11-05T06:42:49.777Z,98.28
2022-11-05T06:43:47.849Z,98.22
2022-11-05T06:44:47.905Z,98.38
2022-11-05T06:45:47.823Z,98.32
2022-11-05T06:46:48.775Z,98.11
2022-11-05T06:47:48.810Z,98.11
2022-11-05T06:48:47.877Z,98.22
2022-11-05T06:49:47.679Z,98.43
2022-11-05T06:50:47.739Z,98.22
2022-11-05T06:51:47.735Z,98.00
2022-11-05T06:52:47.809Z,98.21
2022-11-05T06:53:47.709Z,98.57
2022-11-05T06:54:47.649Z,98.41
2022-11-05T06:55:47.645Z,99.04
2022-11-05T06:56:47.793Z,99.14
2022-11-05T06:57:48.157Z,99.14
2022-11-05T06:58:47.728Z,99.19
2022-11-05T06:59:47.693Z,99.04
2022-11-05T07:00:47.686Z,99.86
2022-11-05T07:01:47.828Z,99.86
2022-11-05T07:02:47.706Z,99.99
2022-11-05T07:03:47.725Z,99.99
2022-11-05T07:04:47.677Z,99.99
2022-11-05T07:05:47.657Z,99.99
2022-11-05T07:06:47.646Z,99.99
2022-11-05T07:07:47.659Z,99.99
2022-11-05T07:08:47.727Z,99.99
2022-11-05T07:09:47.651Z,99.99
2022-11-05T07:10:47.659Z,99.99
2022-11-05T07:11:47.542Z,99.99
2022-11-05T07:12:47.525Z,99.99
2022-11-05T07:13:47.576Z,99.99
2022-11-05T07:14:47.704Z,99.99
2022-11-05T07:15:47.558Z,99.99
2022-11-05T07:16:47.520Z,99.99
2022-11-05T07:17:47.512Z,99.99
2022-11-05T07:18:47.654Z,99.99
2022-11-05T07:19:47.645Z,99.99
2022-11-05T07:20:47.548Z,99.99
2022-11-05T07:21:47.585Z,99.99
2022-11-05T07:22:47.536Z,99.99
2022-11-05T07:23:48.544Z,99.99
2022-11-05T07:24:47.554Z,99.99
2022-11-05T07:25:47.582Z,99.99
2022-11-05T07:26:47.565Z,99.99
2022-11-05T07:27:47.546Z,99.99
2022-11-05T07:28:47.512Z,99.99
2022-11-05T07:29:47.531Z,99.99
2022-11-05T07:30:47.583Z,99.99
2022-11-05T07:31:47.507Z,99.99
2022-11-05T07:32:47.506Z,99.99
2022-11-05T07:33:47.503Z,99.99
2022-11-05T07:34:47.391Z,99.99
2022-11-05T07:35:47.357Z,99.68
2022-11-05T07:36:47.511Z,99.68
2022-11-05T07:37:47.368Z,99.57
2022-11-05T07:38:47.346Z,99.26
2022-11-05T07:39:48.387Z,99.26
2022-11-05T07:40:47.373Z,99.37
2022-11-05T07:41:47.597Z,99.47
2022-11-05T07:42:47.459Z,99.26
2022-11-05T07:43:47.387Z,99.57
2022-11-05T07:44:47.400Z,99.37
2022-11-05T07:45:47.387Z,99.26
2022-11-05T07:46:47.374Z,99.37
2022-11-05T07:47:47.410Z,99.37
2022-11-05T07:48:47.344Z,99.63
2022-11-05T07:49:47.389Z,99.01
2022-11-05T07:50:47.381Z,99.11
2022-11-05T07:51:47.348Z,99.26
2022-11-05T07:52:47.393Z,99.47
2022-11-05T07:53:47.345Z,99.32
2022-11-05T07:54:47.207Z,99.17
2022-11-05T07:55:47.250Z,99.32
2022-11-05T07:56:47.237Z,99.27
2022-11-05T07:57:47.231Z,98.97
2022-11-05T07:58:47.618Z,98.82
2022-11-05T07:59:47.216Z,98.20
2022-11-05T08:00:47.310Z,98.57
2022-11-05T08:01:47.373Z,97.95
2022-11-05T08:02:47.481Z,97.85
2022-11-05T08:03:47.304Z,97.74
2022-11-05T08:04:47.467Z,97.33
2022-11-05T08:05:47.252Z,97.23
2022-11-05T08:06:47.266Z,97.13
2022-11-05T08:07:47.230Z,97.33
2022-11-05T08:08:47.359Z,97.13
2022-11-05T08:09:47.233Z,97.23
2022-11-05T08:10:47.181Z,97.18
2022-11-05T08:11:47.188Z,96.92
2022-11-05T08:12:47.170Z,97.43
2022-11-05T08:13:47.178Z,98.15
2022-11-05T08:14:47.243Z,98.15
2022-11-05T08:15:47.192Z,98.15
2022-11-05T08:16:47.120Z,98.67
2022-11-05T08:17:47.068Z,98.32
2022-11-05T08:18:47.139Z,98.11
2022-11-05T08:19:47.120Z,97.96
2022-11-05T08:20:47.260Z,97.55
2022-11-05T08:21:47.155Z,96.83
2022-11-05T08:22:47.134Z,97.14
2022-11-05T08:23:47.173Z,97.24
2022-11-05T08:24:47.222Z,96.83
2022-11-05T08:25:47.223Z,96.68
2022-11-05T08:26:47.155Z,96.72
2022-11-05T08:27:47.097Z,96.58
2022-11-05T08:28:47.086Z,95.86
2022-11-05T08:29:47.074Z,95.45
2022-11-05T08:30:47.122Z,95.20
2022-11-05T08:31:47.117Z,95.24
2022-11-05T08:32:47.142Z,95.40
2022-11-05T08:33:47.012Z,95.61
2022-11-05T08:34:47.018Z,94.74
2022-11-05T08:35:47.085Z,93.71
2022-11-05T08:36:47.055Z,94.02
2022-11-05T08:37:47.015Z,93.36
2022-11-05T08:38:47.039Z,93.82
2022-11-05T08:39:47.067Z,93.46
2022-11-05T08:40:47.009Z,93.05
2022-11-05T08:41:48.526Z,92.70
2022-11-05T08:42:47.049Z,92.74
2022-11-05T08:43:46.993Z,92.70
2022-11-05T08:44:47.967Z,91.88
2022-11-05T08:45:46.967Z,92.60
2022-11-05T08:46:47.009Z,92.08
2022-11-05T08:47:47.017Z,91.99
2022-11-05T08:48:47.040Z,91.99
2022-11-05T08:49:47.059Z,91.99
2022-11-05T08:50:47.011Z,92.19
2022-11-05T08:51:46.949Z,91.99
2022-11-05T08:52:46.976Z,92.70
2022-11-05T08:53:46.906Z,93.59
2022-11-05T08:54:46.918Z,93.48
2022-11-05T08:55:47.186Z,93.48
2022-11-05T08:56:47.823Z,92.86
2022-11-05T08:57:46.928Z,92.66
2022-11-05T08:58:46.825Z,92.55
2022-11-05T08:59:46.779Z,92.55
2022-11-05T09:00:46.893Z,92.72
2022-11-05T09:01:46.912Z,92.41
2022-11-05T09:02:46.870Z,92.31
2022-11-05T09:03:46.955Z,92.82
2022-11-05T09:04:46.874Z,92.51
2022-11-05T09:05:46.859Z,92.61
2022-11-05T09:06:46.867Z,92.82
2022-11-05T09:07:46.967Z,92.93
2022-11-05T09:08:46.823Z,93.13
2022-11-05T09:09:46.920Z,93.29
2022-11-05T09:10:46.852Z,93.02
2022-11-05T09:12:10.709Z,93.44
2022-11-05T09:12:48.712Z,93.44
2022-11-05T09:13:46.879Z,93.85
2022-11-05T09:14:46.794Z,93.95
2022-11-05T09:15:46.680Z,94.11
2022-11-05T09:16:46.710Z,93.64
2022-11-05T09:17:46.691Z,93.64
2022-11-05T09:18:46.664Z,94.15
2022-11-05T09:19:46.819Z,93.85
2022-11-05T09:20:47.858Z,93.49
2022-11-05T09:21:46.735Z,93.60
2022-11-05T09:22:46.846Z,93.60
2022-11-05T09:23:46.626Z,93.80
2022-11-05T09:24:46.711Z,93.76
2022-11-05T09:25:46.734Z,93.04
2022-11-05T09:26:46.689Z,93.25
2022-11-05T09:27:46.673Z,93.45
2022-11-05T09:28:46.675Z,92.94
2022-11-05T09:29:46.715Z,92.94
2022-11-05T09:30:46.625Z,91.61
2022-11-05T09:31:46.656Z,91.56
2022-11-05T09:32:46.755Z,91.36
2022-11-05T09:33:46.527Z,91.26
2022-11-05T09:34:46.611Z,91.77
2022-11-05T09:35:46.527Z,90.64
2022-11-05T09:36:46.582Z,89.31
2022-11-05T09:37:46.626Z,88.80
2022-11-05T09:38:46.661Z,88.80
2022-11-05T09:39:46.583Z,88.70
2022-11-05T09:40:46.618Z,88.18
2022-11-05T09:41:46.653Z,87.53
2022-11-05T09:42:46.555Z,88.45
2022-11-05T09:43:46.573Z,86.85
2022-11-05T09:44:47.278Z,85.99
2022-11-05T09:45:46.585Z,85.79
2022-11-05T09:46:46.549Z,86.20
2022-11-05T09:47:46.540Z,86.51
2022-11-05T09:48:46.440Z,87.53
2022-11-05T09:49:46.531Z,86.67
2022-11-05T09:50:46.443Z,86.10
2022-11-05T09:51:46.531Z,86.46
2022-11-05T09:52:46.467Z,85.85
2022-11-05T09:53:46.450Z,86.22
2022-11-05T09:54:46.406Z,86.36
2022-11-05T09:55:46.579Z,85.81
2022-11-05T09:56:46.482Z,85.20
2022-11-05T09:57:46.641Z,85.61
2022-11-05T09:58:46.463Z,85.50
2022-11-05T09:59:46.459Z,84.99
2022-11-05T10:00:46.433Z,84.89
2022-11-05T10:03:18.043Z,84.79
2022-11-05T10:04:50.227Z,85.06
2022-11-05T10:05:18.198Z,85.47
2022-11-05T10:06:51.360Z,83.38
2022-11-05T10:07:18.058Z,83.28
2022-11-05T10:08:52.497Z,83.18
2022-11-05T10:10:10.764Z,83.18
2022-11-05T10:10:18.074Z,85.08
2022-11-05T10:12:16.388Z,84.47
2022-11-05T10:12:18.081Z,84.88
2022-11-05T10:13:18.119Z,82.49
2022-11-05T10:14:18.130Z,83.00
2022-11-05T10:15:18.030Z,83.30
2022-11-05T10:16:18.018Z,83.10
2022-11-05T10:17:18.050Z,83.81
2022-11-05T10:18:18.077Z,83.40
2022-11-05T10:19:18.000Z,83.10
2022-11-05T10:20:17.960Z,83.00
2022-11-05T10:21:27.758Z,83.44
2022-11-05T10:22:19.014Z,83.00
2022-11-05T10:23:17.981Z,83.51
2022-11-05T10:24:18.120Z,83.71
2022-11-05T10:25:18.056Z,84.83
2022-11-05T10:26:18.014Z,83.30
2022-11-05T10:27:18.096Z,83.67
2022-11-05T10:28:18.025Z,82.45
2022-11-05T10:29:18.036Z,81.63
2022-11-05T10:30:18.021Z,82.79
2022-11-05T10:31:18.018Z,82.49
2022-11-05T10:32:18.018Z,82.49
2022-11-05T10:33:17.960Z,82.08
2022-11-05T10:34:17.953Z,82.22
2022-11-05T10:35:17.975Z,80.99
2022-11-05T10:36:17.979Z,82.63
2022-11-05T10:37:18.137Z,81.20
2022-11-05T10:38:17.884Z,82.73
2022-11-05T10:39:17.862Z,82.63
2022-11-05T10:40:17.848Z,82.63
2022-11-05T10:41:17.859Z,83.54
2022-11-05T10:42:17.766Z,83.24
2022-11-05T10:43:17.884Z,83.14
2022-11-05T10:44:19.062Z,82.87
2022-11-05T10:45:18.821Z,81.24
2022-11-05T10:46:17.906Z,82.46
2022-11-05T10:47:17.877Z,82.97
2022-11-05T10:48:17.923Z,82.36
2022-11-05T10:49:17.894Z,81.27
2022-11-05T10:50:17.976Z,81.58
2022-11-05T10:51:17.864Z,81.34
2022-11-05T10:52:17.826Z,81.44
2022-11-05T10:53:17.813Z,80.83
2022-11-05T10:54:17.831Z,80.66
2022-11-05T10:55:17.836Z,80.42
2022-11-05T10:56:17.846Z,79.39
2022-11-05T10:57:17.866Z,80.11
2022-11-05T10:58:17.677Z,77.56
2022-11-05T10:59:17.707Z,77.59
2022-11-05T11:00:17.679Z,78.00
2022-11-05T11:01:17.883Z,77.08
2022-11-05T11:02:17.853Z,77.49
2022-11-05T11:03:17.714Z,77.94
2022-11-05T11:04:17.735Z,76.88
2022-11-05T11:05:17.846Z,77.39
2022-11-05T11:06:17.805Z,76.98
2022-11-05T11:07:17.759Z,76.64
2022-11-05T11:08:17.725Z,76.03
2022-11-05T11:09:17.755Z,75.51
2022-11-05T11:10:17.787Z,74.97
2022-11-05T11:11:17.726Z,74.97
2022-11-05T11:12:17.731Z,74.97
2022-11-05T11:13:18.035Z,73.60
2022-11-05T11:14:17.600Z,73.10
2022-11-05T11:15:17.549Z,72.72
2022-11-05T11:16:17.604Z,73.03
2022-11-05T11:17:17.592Z,74.35
2022-11-05T11:18:17.891Z,74.87
2022-11-05T11:19:17.694Z,74.90
2022-11-05T11:20:17.714Z,74.39
2022-11-05T11:21:17.645Z,74.08
2022-11-05T11:22:17.636Z,74.46
2022-11-05T11:23:17.576Z,73.68
2022-11-05T11:24:17.760Z,74.25
2022-11-05T11:25:17.627Z,74.05
2022-11-05T11:26:17.558Z,73.06
2022-11-05T11:27:17.610Z,73.54
2022-11-05T11:28:17.572Z,72.82
2022-11-05T11:29:18.302Z,73.27
2022-11-05T11:30:17.656Z,73.06
2022-11-05T11:31:18.399Z,73.36
2022-11-05T11:32:17.434Z,73.33
2022-11-05T11:33:17.453Z,72.52
2022-11-05T11:34:17.472Z,73.33
2022-11-05T11:35:17.498Z,72.69
2022-11-05T11:36:17.463Z,72.99
2022-11-05T11:37:19.633Z,71.36
2022-11-05T11:38:18.482Z,72.24
2022-11-05T11:39:17.481Z,71.43
2022-11-05T11:40:17.545Z,70.92
2022-11-05T11:41:18.528Z,71.02
2022-11-05T11:42:17.486Z,71.02
2022-11-05T11:43:17.442Z,71.22
2022-11-05T11:44:17.432Z,71.43
2022-11-05T11:45:17.594Z,71.63
2022-11-05T11:46:17.532Z,71.94
2022-11-05T11:47:17.526Z,71.43
2022-11-05T11:48:17.422Z,71.02
2022-11-05T11:49:17.444Z,71.15
2022-11-05T11:50:17.458Z,71.46
2022-11-05T11:51:17.402Z,72.79
2022-11-05T11:52:17.341Z,72.28
2022-11-05T11:53:17.987Z,73.50
2022-11-05T11:54:17.293Z,72.96
2022-11-05T11:55:17.519Z,73.06
2022-11-05T11:56:17.436Z,73.27
2022-11-05T11:57:17.430Z,72.86
2022-11-05T11:58:17.311Z,72.38
2022-11-05T11:59:17.378Z,72.96
2022-11-05T12:00:17.268Z,73.40
2022-11-05T12:01:17.470Z,72.79
2022-11-05T12:02:17.497Z,73.44
2022-11-05T12:03:17.862Z,73.19
2022-11-05T12:04:17.348Z,75.34
2022-11-05T12:05:17.375Z,75.75
2022-11-05T12:06:17.373Z,75.75
2022-11-05T12:07:17.753Z,74.52
2022-11-05T12:08:17.425Z,73.74
2022-11-05T12:09:17.352Z,72.99
2022-11-05T12:10:17.299Z,73.40
2022-11-05T12:11:17.358Z,74.22
2022-11-05T12:12:17.342Z,73.57
2022-11-05T12:13:17.320Z,73.27
2022-11-05T12:14:17.332Z,73.27
2022-11-05T12:15:17.274Z,73.03
2022-11-05T12:16:17.324Z,73.94
2022-11-05T12:17:17.242Z,75.44
2022-11-05T12:18:17.615Z,74.01
2022-11-05T12:19:17.417Z,72.62
2022-11-05T12:20:17.390Z,73.60
2022-11-05T12:21:34.649Z,71.46
2022-11-05T12:22:19.138Z,74.42
2022-11-05T12:23:17.086Z,70.68
2022-11-05T12:24:17.112Z,70.54
2022-11-05T12:25:17.143Z,69.63
2022-11-05T12:26:17.157Z,70.07
2022-11-05T12:27:17.085Z,69.12
2022-11-05T12:28:17.018Z,71.46
2022-11-05T12:29:19.322Z,70.75
2022-11-05T12:30:18.074Z,69.08
2022-11-05T12:31:17.089Z,70.20
2022-11-05T12:32:17.686Z,70.95
2022-11-05T12:33:17.529Z,71.67
2022-11-05T12:34:17.324Z,73.40
2022-11-05T12:35:17.218Z,71.05
2022-11-05T12:36:17.168Z,70.44
2022-11-05T12:37:17.155Z,71.56
2022-11-05T12:38:17.116Z,71.46
2022-11-05T12:39:17.135Z,71.09
2022-11-05T12:40:17.318Z,72.82
2022-11-05T12:41:17.173Z,71.87
2022-11-05T12:42:17.049Z,71.67
2022-11-05T12:43:17.539Z,71.29
2022-11-05T12:44:16.997Z,72.38
2022-11-05T12:45:17.014Z,71.53
2022-11-05T12:46:17.024Z,72.65
2022-11-05T12:47:17.049Z,73.06
2022-11-05T12:48:17.059Z,73.13
2022-11-05T12:49:16.999Z,72.99
2022-11-05T12:50:16.990Z,70.72
2022-11-05T12:51:16.987Z,69.67
2022-11-05T12:52:16.913Z,68.95
2022-11-05T12:53:16.850Z,68.71
2022-11-05T12:54:17.841Z,66.44
2022-11-05T12:55:16.873Z,65.09
2022-11-05T12:56:16.959Z,66.05
2022-11-05T12:57:16.850Z,64.15
2022-11-05T12:58:16.875Z,62.95
2022-11-05T12:59:16.825Z,61.24
2022-11-05T13:00:16.842Z,58.48
2022-11-05T13:01:16.890Z,59.44
2022-11-05T13:02:16.980Z,57.49
2022-11-05T13:03:17.742Z,57.38
2022-11-05T13:04:16.930Z,54.21
2022-11-05T13:05:16.865Z,53.98
2022-11-05T13:06:16.967Z,53.00
2022-11-05T13:07:16.923Z,52.97
2022-11-05T13:08:16.929Z,51.66
2022-11-05T13:09:16.836Z,53.70
2022-11-05T13:10:16.832Z,57.80
2022-11-05T13:11:16.930Z,60.75
2022-11-05T13:12:16.884Z,62.70
2022-11-05T13:13:16.868Z,64.34
2022-11-05T13:14:16.782Z,65.49
2022-11-05T13:15:17.685Z,65.86
2022-11-05T13:16:16.700Z,65.28
2022-11-05T13:17:16.707Z,66.50
2022-11-05T13:18:16.904Z,67.65
2022-11-05T13:19:16.797Z,68.06
2022-11-05T13:20:17.742Z,68.16
2022-11-05T13:21:17.686Z,67.96
2022-11-05T13:22:16.757Z,68.26
2022-11-05T13:23:16.819Z,68.88
2022-11-05T13:24:17.071Z,69.11
2022-11-05T13:25:16.793Z,69.49
2022-11-05T13:26:19.658Z,70.61
2022-11-05T13:27:17.727Z,68.88
2022-11-05T13:28:16.831Z,69.38
2022-11-05T13:29:16.924Z,68.57
2022-11-05T13:30:16.679Z,69.29
2022-11-05T13:31:16.709Z,70.27
2022-11-05T13:32:16.681Z,68.44
2022-11-05T13:33:16.673Z,68.64
2022-11-05T13:34:16.672Z,68.33
2022-11-05T13:35:16.728Z,67.79
2022-11-05T13:36:16.588Z,67.01
2022-11-05T13:37:16.610Z,66.09
2022-11-05T13:38:16.732Z,64.41
2022-11-05T13:39:16.630Z,64.34
2022-11-05T13:40:16.686Z,64.37
2022-11-05T13:41:16.591Z,64.29
2022-11-05T13:42:16.855Z,64.87
2022-11-05T13:43:16.544Z,65.68
2022-11-05T13:44:16.698Z,66.09
2022-11-05T13:45:16.807Z,66.80
2022-11-05T13:46:16.681Z,65.07
2022-11-05T13:47:16.646Z,65.04
2022-11-05T13:48:16.596Z,63.49
2022-11-05T13:49:16.603Z,61.37
2022-11-05T13:50:16.746Z,59.31
2022-11-05T13:51:16.630Z,59.01
2022-11-05T13:52:16.544Z,59.57
2022-11-05T13:53:16.537Z,60.36
2022-11-05T13:54:16.507Z,61.33
2022-11-05T13:55:16.557Z,62.51
2022-11-05T13:56:16.583Z,63.15
2022-11-05T13:57:16.501Z,62.80
2022-11-05T13:58:16.466Z,62.26
2022-11-05T13:59:16.435Z,61.59
2022-11-05T14:00:16.445Z,61.90
2022-11-05T14:01:16.447Z,61.25
2022-11-05T14:02:16.693Z,61.13
2022-11-05T14:03:16.557Z,61.94
2022-11-05T14:04:16.406Z,59.88
2022-11-05T14:05:16.408Z,60.38
2022-11-05T14:06:16.342Z,60.36
2022-11-05T14:07:16.595Z,61.27
2022-11-05T14:08:16.532Z,61.37
2022-11-05T14:09:16.519Z,60.97
2022-11-05T14:10:16.541Z,61.47
2022-11-05T14:11:16.582Z,60.36
2022-11-05T14:12:16.377Z,59.88
2022-11-05T14:13:16.490Z,60.36
2022-11-05T14:14:16.385Z,60.38
2022-11-05T14:15:16.366Z,61.22
2022-11-05T14:16:16.378Z,61.97
2022-11-05T14:17:16.367Z,62.17
2022-11-05T14:18:16.373Z,62.98
2022-11-05T14:19:16.374Z,63.19
2022-11-05T14:20:16.346Z,62.78
2022-11-05T14:21:16.305Z,62.88
2022-11-05T14:22:16.264Z,62.84
2022-11-05T14:23:16.368Z,64.17
2022-11-05T14:24:16.378Z,63.86
2022-11-05T14:25:16.241Z,64.78
2022-11-05T14:26:16.215Z,64.57
2022-11-05T14:27:16.265Z,64.84
2022-11-05T14:28:16.307Z,64.44
2022-11-05T14:29:16.594Z,63.70
2022-11-05T14:30:16.518Z,64.44
2022-11-05T14:31:16.297Z,64.44
2022-11-05T14:32:16.333Z,64.17
2022-11-05T14:33:16.228Z,64.22
2022-11-05T14:34:16.383Z,64.43
2022-11-05T14:35:16.316Z,65.34
2022-11-05T14:36:16.403Z,65.86
2022-11-05T14:37:16.280Z,66.50
2022-11-05T14:38:16.230Z,65.78
2022-11-05T14:39:16.348Z,66.91
2022-11-05T14:40:16.206Z,65.89
2022-11-05T14:41:16.309Z,67.93
2022-11-05T14:42:16.172Z,66.22
2022-11-05T14:43:16.246Z,66.12
2022-11-05T14:44:16.156Z,67.24
2022-11-05T14:45:16.111Z,67.76
2022-11-05T14:46:16.252Z,68.54
2022-11-05T14:47:16.188Z,68.84
2022-11-05T14:48:16.148Z,68.44
2022-11-05T14:49:16.200Z,68.23
2022-11-05T14:50:16.407Z,68.95
2022-11-05T14:51:16.240Z,69.42
2022-11-05T14:52:16.358Z,67.62
2022-11-05T14:53:16.229Z,68.51
2022-11-05T14:54:16.245Z,68.03
2022-11-05T14:55:16.542Z,68.13
2022-11-05T14:56:16.084Z,68.95
2022-11-05T14:57:16.262Z,68.26
2022-11-05T14:58:16.130Z,67.85
2022-11-05T14:59:16.250Z,68.40
2022-11-05T15:00:16.130Z,68.91
2022-11-05T15:01:16.157Z,68.30
2022-11-05T15:02:16.351Z,69.01
2022-11-05T15:03:16.125Z,69.42
2022-11-05T15:04:16.312Z,70.27
2022-11-05T15:05:16.098Z,69.15
2022-11-05T15:06:15.951Z,69.48
2022-11-05T15:07:15.901Z,69.59
2022-11-05T15:08:16.042Z,69.89
2022-11-05T15:09:15.920Z,71.33
2022-11-05T15:10:15.905Z,71.01
2022-11-05T15:11:16.165Z,71.94
2022-11-05T15:12:15.932Z,71.22
2022-11-05T15:13:16.289Z,71.42
2022-11-05T15:14:16.076Z,71.73
2022-11-05T15:15:21.266Z,72.55
2022-11-05T15:16:17.898Z,72.79
2022-11-05T15:17:15.997Z,73.27
2022-11-05T15:18:16.082Z,73.40
2022-11-05T15:19:16.270Z,73.10
2022-11-05T15:20:16.088Z,74.11
2022-11-05T15:21:15.953Z,74.32
2022-11-05T15:22:15.941Z,74.43
2022-11-05T15:23:16.139Z,74.26
2022-11-05T15:24:16.550Z,75.34
2022-11-05T15:25:15.908Z,76.40
2022-11-05T15:26:15.958Z,76.81
2022-11-05T15:27:16.022Z,76.40
2022-11-05T15:28:15.917Z,75.99
2022-11-05T15:29:15.900Z,75.99
2022-11-05T15:30:15.893Z,76.40
2022-11-05T15:31:15.841Z,76.81
2022-11-05T15:32:16.286Z,76.84
2022-11-05T15:33:16.018Z,76.84
2022-11-05T15:34:16.869Z,77.36
2022-11-05T15:35:15.934Z,77.60
2022-11-05T15:36:15.828Z,78.17
2022-11-05T15:37:15.994Z,77.76
2022-11-05T15:38:16.248Z,78.63
2022-11-05T15:39:29.115Z,79.07
2022-11-05T15:40:17.822Z,78.97
2022-11-05T15:41:15.678Z,79.17
2022-11-05T15:42:15.794Z,79.58
2022-11-05T15:43:15.776Z,78.97
2022-11-05T15:44:15.856Z,79.58
2022-11-05T15:45:15.763Z,78.97
2022-11-05T15:46:17.021Z,78.56
2022-11-05T15:47:15.762Z,78.66
2022-11-05T15:48:15.753Z,79.00
2022-11-05T15:49:15.802Z,78.56
2022-11-05T15:50:15.774Z,79.07
2022-11-05T15:51:15.758Z,79.93
2022-11-05T15:52:15.743Z,79.27
2022-11-05T15:53:41.628Z,79.58
2022-11-05T15:54:29.874Z,78.90
2022-11-05T15:55:17.631Z,78.80
2022-11-05T15:56:15.679Z,79.11
2022-11-05T15:57:15.681Z,79.00
2022-11-05T15:58:15.770Z,79.00
2022-11-05T15:59:16.278Z,79.41
2022-11-05T16:00:15.560Z,79.11
2022-11-05T16:01:15.728Z,79.62
2022-11-05T16:02:15.850Z,79.11
2022-11-05T16:03:15.513Z,79.62
2022-11-05T16:04:16.611Z,79.93
2022-11-05T16:05:15.782Z,79.93
2022-11-05T16:06:15.612Z,80.07
2022-11-05T16:07:15.615Z,79.75
2022-11-05T16:08:15.608Z,80.27
2022-11-05T16:09:15.580Z,80.47
2022-11-05T16:10:15.568Z,80.68
2022-11-05T16:11:15.522Z,80.68
2022-11-05T16:12:15.557Z,80.47
2022-11-05T16:13:15.628Z,80.58
2022-11-05T16:14:15.537Z,80.58
2022-11-05T16:15:15.541Z,80.27
2022-11-05T16:16:15.510Z,80.88
2022-11-05T16:17:15.491Z,80.37
2022-11-05T16:18:15.548Z,80.78
2022-11-05T16:19:15.994Z,80.58
2022-11-05T16:20:15.536Z,80.47
2022-11-05T16:21:15.514Z,81.09
2022-11-05T16:22:15.491Z,80.88
2022-11-05T16:23:16.579Z,81.20
2022-11-05T16:24:15.515Z,80.99
2022-11-05T16:25:15.580Z,81.26
2022-11-05T16:26:15.502Z,81.09
2022-11-05T16:27:19.480Z,81.09
2022-11-05T16:28:16.403Z,81.29
2022-11-05T16:29:15.406Z,81.29
2022-11-05T16:30:15.719Z,81.20
2022-11-05T16:31:15.361Z,81.29
2022-11-05T16:32:15.278Z,81.29
2022-11-05T16:33:15.283Z,81.09
2022-11-05T16:34:15.320Z,81.29
2022-11-05T16:35:15.622Z,81.20
2022-11-05T16:36:15.273Z,81.50
2022-11-05T16:37:15.445Z,81.71
2022-11-05T16:38:15.348Z,81.60
2022-11-05T16:39:16.361Z,81.50
2022-11-05T16:40:17.309Z,81.60
2022-11-05T16:41:15.285Z,81.40
2022-11-05T16:42:15.420Z,81.40
2022-11-05T16:43:15.336Z,81.71
2022-11-05T16:44:15.375Z,82.12
2022-11-05T16:45:15.402Z,82.32
2022-11-05T16:46:15.466Z,82.67
2022-11-05T16:47:15.297Z,82.97
2022-11-05T16:48:15.520Z,83.18
2022-11-05T16:49:15.442Z,83.07
2022-11-05T16:50:15.333Z,83.07
2022-11-05T16:51:15.265Z,83.07
2022-11-05T16:52:15.382Z,83.28
2022-11-05T16:53:15.287Z,83.07
2022-11-05T16:54:15.136Z,83.07
2022-11-05T16:55:15.178Z,83.28
2022-11-05T16:56:15.335Z,83.63
2022-11-05T16:57:15.117Z,83.83
2022-11-05T16:58:15.116Z,83.83
2022-11-05T16:59:15.360Z,83.63
2022-11-05T17:00:15.126Z,83.59
2022-11-05T17:01:15.156Z,84.14
2022-11-05T17:02:15.602Z,84.14
2022-11-05T17:03:15.149Z,84.25
2022-11-05T17:04:15.141Z,83.94
2022-11-05T17:05:15.172Z,84.45
2022-11-05T17:06:15.155Z,84.25
2022-11-05T17:07:15.291Z,84.14
2022-11-05T17:08:15.432Z,84.66
2022-11-05T17:09:15.247Z,83.90
2022-11-05T17:10:15.213Z,84.04
2022-11-05T17:11:15.187Z,85.27
2022-11-05T17:12:15.106Z,84.34
2022-11-05T17:13:15.133Z,84.45
2022-11-05T17:14:15.061Z,84.45
2022-11-05T17:15:14.980Z,84.45
2022-11-05T17:16:15.035Z,84.66
2022-11-05T17:17:15.096Z,84.25
2022-11-05T17:18:18.602Z,84.76
2022-11-05T17:19:15.975Z,85.38
2022-11-05T17:20:15.039Z,84.66
2022-11-05T17:21:15.217Z,84.96
2022-11-05T17:22:15.043Z,85.27
2022-11-05T17:23:16.463Z,85.52
2022-11-05T17:24:15.039Z,86.07
2022-11-05T17:25:15.011Z,85.93
2022-11-05T17:26:15.030Z,86.17
2022-11-05T17:27:15.011Z,85.72
2022-11-05T17:28:15.270Z,86.24
2022-11-05T17:29:15.236Z,86.54
2022-11-05T17:30:15.023Z,86.13
2022-11-05T17:31:14.917Z,86.38
2022-11-05T17:32:14.905Z,86.48
2022-11-05T17:33:15.334Z,86.79
2022-11-05T17:34:15.288Z,86.65
2022-11-05T17:35:14.924Z,86.89
2022-11-05T17:36:14.983Z,86.79
2022-11-05T17:37:14.889Z,86.99
2022-11-05T17:38:14.861Z,86.68
2022-11-05T17:39:14.821Z,86.99
2022-11-05T17:40:14.864Z,86.99
2022-11-05T17:41:14.957Z,87.10
2022-11-05T17:42:14.955Z,86.68
2022-11-05T17:43:15.236Z,87.30
2022-11-05T17:44:15.237Z,86.79
2022-11-05T17:45:15.047Z,87.24
2022-11-05T17:46:14.914Z,87.20